Flight Track Log - Related Links

Times and Time Zones

All times are in EDT time to prevent confusion due to time zone crossing. See the N726XJ flight status page for this flight to view local times or setup timezone preferences in your user account.


Time Position Orientation Groundspeed Altitude Reporting Facility
EDT Latitude Longitude Course Direction KTS MPH feet Rate Location/Type
Mon 01:58:12 PM 34.1767 -118.4864 102° East 185 213 1,700  Level Los Angeles Center
Mon 01:59:14 PM 34.1664 -118.4278 102° East 240 276 4,100 2,426 Climbing Los Angeles Center
Mon 02:00:28 PM 34.2447 -118.4536 345° North 255 293 7,200 2,321 Climbing Los Angeles Center
Mon 02:01:31 PM 34.3158 -118.4350 12° North 275 316 9,400 1,824 Climbing Los Angeles Center
Mon 02:02:33 PM 34.3889 -118.3833 30° Northeast 303 349 11,000 1,694 Climbing Los Angeles Center
Mon 02:03:35 PM 34.4867 -118.3019 34° Northeast 358 412 12,900 1,742 Climbing Los Angeles Center
Mon 02:04:37 PM 34.5489 -118.1981 54° Northeast 381 438 14,600 1,548 Climbing Los Angeles Center
Mon 02:05:39 PM 34.6064 -118.1022 54° Northeast 388 447 16,100 1,597 Climbing Los Angeles Center
Mon 02:06:41 PM 34.6461 -117.9503 72° East 395 455 17,900 1,548 Climbing Los Angeles Center
Mon 02:07:43 PM 34.6586 -117.8131 84° East 408 470 19,300 1,403 Climbing Los Angeles Center
Mon 02:08:45 PM 34.6883 -117.6733 75° East 422 486 20,800 1,200 Climbing Los Angeles Center
Mon 02:09:48 PM 34.7206 -117.5381 74° East 426 490 21,800 968 Climbing Los Angeles Center
Mon 02:10:49 PM 34.7569 -117.3964 73° East 441 507 22,800 1,113 Climbing Los Angeles Center
Mon 02:11:52 PM 34.8003 -117.2244 73° East 447 514 24,100 1,152 Climbing Los Angeles Center
Mon 02:12:54 PM 34.8367 -117.0769 73° East 458 527 25,200 1,065 Climbing Los Angeles Center
Mon 02:13:56 PM 34.8944 -116.9375 63° Northeast 464 534 26,300 1,065 Climbing Los Angeles Center
Mon 02:14:58 PM 34.9750 -116.8103 52° Northeast 475 547 27,400 1,161 Climbing Los Angeles Center
Mon 02:16:00 PM 35.0600 -116.6842 51° Northeast 481 554 28,700 1,210 Climbing Los Angeles Center
Mon 02:17:02 PM 35.1625 -116.5347 50° Northeast 481 554 29,900 1,016 Climbing Los Angeles Center
Mon 02:18:04 PM 35.2508 -116.4078 50° Northeast 488 562 30,800 774 Climbing Los Angeles Center
Mon 02:19:06 PM 35.3386 -116.2775 50° Northeast 494 568 31,500 726 Climbing Los Angeles Center
Mon 02:20:08 PM 35.4269 -116.1411 51° Northeast 509 586 32,300 919 Climbing Los Angeles Center
Mon 02:21:10 PM 35.5200 -116.0067 50° Northeast 515 593 33,400 1,104 Climbing Los Angeles Center
Mon 02:22:13 PM 35.6292 -115.8439 50° Northeast 521 600 34,600 1,008 Climbing Los Angeles Center
Mon 02:23:15 PM 35.7222 -115.7039 51° Northeast 528 608 35,500 750 Climbing Los Angeles Center
Mon 02:24:29 PM 35.8175 -115.5606 51° Northeast 539 620 36,300 750 Climbing Los Angeles Center
Mon 02:25:31 PM 35.9311 -115.3861 51° Northeast 546 628 37,200 919 Climbing Los Angeles Center
Mon 02:26:33 PM 36.0450 -115.2100 51° Northeast 548 631 38,200 864 Climbing Los Angeles Center
Mon 02:27:36 PM 36.1481 -115.0681 48° Northeast 559 643 39,000 720 Climbing Los Angeles Center
Mon 02:28:38 PM 36.2581 -114.9308 45° Northeast 565 650 39,700 726 Climbing Los Angeles Center
Mon 02:29:40 PM 36.3669 -114.7917 46° Northeast 565 650 40,500 774 Climbing Los Angeles Center
Mon 02:30:42 PM 36.4753 -114.6508 46° Northeast 565 650 41,300 838 Climbing Los Angeles Center
Mon 02:31:56 PM 36.6256 -114.4550 46° Northeast 559 643 42,400 745 Climbing Los Angeles Center
Mon 02:32:59 PM 36.7311 -114.3156 47° Northeast 555 639 43,000 288 Climbing Los Angeles Center
Mon 02:34:01 PM 36.8189 -114.1575 55° Northeast 556 640 43,000  Level Los Angeles Center
Mon 02:35:03 PM 36.8992 -113.9900 59° Northeast 562 647 43,000  Level Los Angeles Center
Mon 02:36:05 PM 36.9919 -113.7978 59° Northeast 563 648 43,000  Level Los Angeles Center
Mon 02:37:07 PM 37.0719 -113.6292 59° Northeast 565 650 43,000  Level Los Angeles Center
Mon 02:38:09 PM 37.1514 -113.4611 59° Northeast 563 648 43,000  Level Los Angeles Center
Mon 02:39:11 PM 37.2322 -113.2908 59° Northeast 568 654 43,000  Level Los Angeles Center
Mon 02:40:13 PM 37.3111 -113.1217 60° Northeast 565 650 43,000  Level Los Angeles Center
Mon 02:41:15 PM 37.4047 -112.9183 60° Northeast 567 652 43,000  Level Los Angeles Center
Mon 02:42:17 PM 37.4794 -112.7503 61° Northeast 566 651 43,000  Level Los Angeles Center
Mon 02:43:19 PM 37.5594 -112.5836 59° Northeast 571 657 43,000  Level Los Angeles Center
Mon 02:44:20 PM 37.6372 -112.4150 60° Northeast 564 649 43,000  Level Salt Lake Center
Mon 02:45:22 PM 37.7186 -112.2489 58° Northeast 561 646 43,000  Level Salt Lake Center
Mon 02:46:24 PM 37.8167 -112.0467 58° Northeast 563 648 43,000  Level Salt Lake Center
Mon 02:47:26 PM 37.8725 -111.8606 69° East 566 651 43,000  Level Salt Lake Center
Mon 02:48:02 PM 37.9078 -111.7494 68° East 566 651 43,000  Level Denver Center
Mon 02:49:04 PM 37.9617 -111.5628 70° East 568 654 43,000  Level Denver Center
Mon 02:50:06 PM 38.0175 -111.3753 69° East 570 656 43,000  Level Denver Center
Mon 02:51:08 PM 38.0744 -111.1883 69° East 570 656 43,000  Level Denver Center
Mon 02:52:10 PM 38.1278 -111.0011 70° East 567 652 43,000  Level Denver Center
Mon 02:53:12 PM 38.1906 -110.7869 69° East 566 651 43,000  Level Denver Center
Mon 02:54:15 PM 38.2511 -110.5764 70° East 568 654 43,000  Level Denver Center
Mon 02:55:17 PM 38.3033 -110.3958 70° East 570 656 43,000  Level Denver Center
Mon 02:56:19 PM 38.3631 -110.1856 70° East 567 652 43,000  Level Denver Center
Mon 02:57:21 PM 38.4144 -110.0056 70° East 566 651 43,000  Level Denver Center
Mon 02:58:23 PM 38.4644 -109.8236 71° East 569 655 43,000  Level Denver Center
Mon 02:59:25 PM 38.5236 -109.6147 70° East 564 649 43,000  Level Denver Center
Mon 03:00:28 PM 38.5819 -109.4017 71° East 566 651 43,000  Level Denver Center
Mon 03:01:30 PM 38.6311 -109.2186 71° East 568 654 43,000  Level Denver Center
Mon 03:02:32 PM 38.6900 -109.0072 70° East 567 652 43,000  Level Denver Center
Mon 03:03:35 PM 38.7386 -108.8253 71° East 568 654 43,000  Level Denver Center
Mon 03:04:37 PM 38.7958 -108.6133 71° East 565 650 43,000  Level Denver Center
Mon 03:05:39 PM 38.8433 -108.4303 72° East 569 655 43,000  Level Denver Center
Mon 03:06:41 PM 38.9014 -108.2136 71° East 578 665 43,000  Level Denver Center
Mon 03:07:43 PM 38.9494 -108.0317 71° East 567 652 43,000  Level Denver Center
Mon 03:08:45 PM 39.0058 -107.8189 71° East 565 650 43,000  Level Denver Center
Mon 03:09:47 PM 39.0533 -107.6342 72° East 568 654 43,000  Level Denver Center
Mon 03:10:49 PM 39.1086 -107.4197 72° East 567 652 43,000  Level Denver Center
Mon 03:11:51 PM 39.1556 -107.2356 72° East 567 652 43,000  Level Denver Center
Mon 03:12:53 PM 39.2094 -107.0200 72° East 567 652 43,000  Level Denver Center
Mon 03:13:55 PM 39.2558 -106.8342 72° East 570 656 43,000  Level Denver Center
Mon 03:14:57 PM 39.3092 -106.6197 72° East 564 649 43,000  Level Denver Center
Mon 03:16:00 PM 39.3544 -106.4347 72° East 564 649 43,000  Level Denver Center
Mon 03:17:02 PM 39.4000 -106.2483 72° East 567 652 43,000  Level Denver Center
Mon 03:18:04 PM 39.4483 -106.0472 73° East 570 656 43,000  Level Denver Center
Mon 03:19:06 PM 39.4950 -105.8519 73° East 568 654 43,000  Level Denver Center
Mon 03:20:08 PM 39.5522 -105.6158 72° East 562 647 43,000  Level Denver Center
Mon 03:21:10 PM 39.5983 -105.4186 73° East 569 655 43,000  Level Denver Center
Mon 03:22:12 PM 39.6436 -105.2239 73° East 561 646 43,000  Level Denver Center
Mon 03:23:14 PM 39.6886 -105.0236 74° East 570 656 43,000 194 Level Denver Center
Mon 03:24:16 PM 39.7344 -104.8253 73° East 563 648 43,400 387 Climbing Denver Center
Mon 03:25:18 PM 39.7817 -104.6250 73° East 559 643 43,800 384 Climbing Denver Center
Mon 03:26:21 PM 39.8256 -104.4231 74° East 553 636 44,200 384 Climbing Denver Center
Mon 03:27:23 PM 39.8675 -104.2297 74° East 544 626 44,600 387 Climbing Denver Center
Mon 03:28:25 PM 39.9183 -103.9992 74° East 543 625 45,000 194 Climbing Denver Center
Mon 03:29:27 PM 39.9594 -103.8064 74° East 553 636 45,000  Level Denver Center
Mon 03:30:29 PM 40.0025 -103.6158 74° East 539 620 45,000  Level Denver Center
Mon 03:31:31 PM 40.0439 -103.4208 74° East 557 641 45,000  Level Denver Center
Mon 03:32:33 PM 40.0861 -103.2267 74° East 558 642 45,000  Level Denver Center
Mon 03:33:35 PM 40.1269 -103.0322 75° East 555 639 45,000  Level Denver Center
Mon 03:34:37 PM 40.1747 -102.7989 75° East 554 638 45,000  Level Denver Center
Mon 03:35:39 PM 40.2161 -102.6056 74° East 554 638 45,000  Level Denver Center
Mon 03:36:41 PM 40.2525 -102.4203 76° East 551 634 45,000  Level Denver Center
Mon 03:37:43 PM 40.2978 -102.2039 75° East 552 635 45,000  Level Denver Center
Mon 03:38:46 PM 40.3336 -102.0167 76° East 554 638 45,000  Level Denver Center
Mon 03:39:48 PM 40.3789 -101.8003 75° East 552 635 45,000  Level Denver Center
Mon 03:40:50 PM 40.4156 -101.6136 75° East 552 635 45,000  Level Denver Center
Mon 03:41:52 PM 40.4589 -101.3958 75° East 554 638 45,000  Level Denver Center
Mon 03:42:54 PM 40.4933 -101.2092 76° East 552 635 45,000  Level Denver Center
Mon 03:43:56 PM 40.5353 -100.9911 76° East 553 636 45,000  Level Denver Center
Mon 03:44:58 PM 40.5694 -100.8047 76° East 554 638 45,000  Level Denver Center
Mon 03:46:00 PM 40.6094 -100.5881 76° East 555 639 45,000  Level Denver Center
Mon 03:47:02 PM 40.6447 -100.4047 76° East 548 631 45,000  Level Denver Center
Mon 03:48:04 PM 40.6850 -100.1894 76° East 547 629 45,000  Level Denver Center
Mon 03:49:06 PM 40.7181 -100.0031 77° East 548 631 45,000  Level Denver Center
Mon 03:50:08 PM 40.7583 -99.7831 76° East 550 633 45,000  Level Denver Center
Mon 03:51:10 PM 40.7919 -99.5881 77° East 547 629 45,000  Level Denver Center
Mon 03:52:12 PM 40.8264 -99.3931 77° East 547 629 45,000  Level Denver Center
Mon 03:53:14 PM 40.8603 -99.1989 77° East 546 628 45,000  Level Denver Center
Mon 03:54:16 PM 40.8978 -98.9767 77° East 544 626 45,000  Level Denver Center
Mon 03:55:28 PM 40.9358 -98.7425 78° East 544 626 45,000  Level Minneapolis Center
Mon 03:56:30 PM 40.9708 -98.5461 77° East 547 629 45,000  Level Minneapolis Center
Mon 03:57:32 PM 41.0036 -98.3517 77° East 546 628 45,000  Level Minneapolis Center
Mon 03:58:34 PM 41.0356 -98.1572 78° East 545 627 45,000  Level Minneapolis Center
Mon 03:59:37 PM 41.0667 -97.9631 78° East 542 624 45,000  Level Minneapolis Center
Mon 04:00:39 PM 41.1036 -97.7278 78° East 544 626 45,000  Level Minneapolis Center
Mon 04:01:41 PM 41.1353 -97.5317 78° East 546 628 45,000  Level Minneapolis Center
Mon 04:02:43 PM 41.1661 -97.3344 78° East 544 626 45,000  Level Minneapolis Center
Mon 04:03:45 PM 41.1969 -97.1364 78° East 547 629 45,000  Level Minneapolis Center
Mon 04:04:47 PM 41.2272 -96.9397 78° East 546 628 45,000  Level Minneapolis Center
Mon 04:05:49 PM 41.2578 -96.7425 78° East 547 629 45,000  Level Minneapolis Center
Mon 04:06:51 PM 41.2864 -96.5439 79° East 549 632 45,000  Level Minneapolis Center
Mon 04:07:53 PM 41.3214 -96.3056 79° East 552 635 45,000  Level Minneapolis Center
Mon 04:08:55 PM 41.3478 -96.1053 80° East 551 634 45,000  Level Minneapolis Center
Mon 04:09:57 PM 41.3714 -95.9047 81° East 550 633 45,000  Level Minneapolis Center
Mon 04:10:59 PM 41.3964 -95.7025 81° East 552 635 45,000  Level Minneapolis Center
Mon 04:12:01 PM 41.4231 -95.4797 81° East 551 634 45,000  Level Minneapolis Center
Mon 04:13:03 PM 41.4472 -95.2781 81° East 551 634 45,000  Level Minneapolis Center
Mon 04:14:05 PM 41.4719 -95.0747 81° East 554 638 45,000  Level Minneapolis Center
Mon 04:15:07 PM 41.4908 -94.9122 81° East 555 639 45,000  Level Minneapolis Center
Mon 04:16:09 PM 41.5178 -94.6675 82° East 557 641 45,000  Level Minneapolis Center
Mon 04:17:11 PM 41.5447 -94.4225 82° East 558 642 45,000  Level Minneapolis Center
Mon 04:18:13 PM 41.5678 -94.2178 81° East 559 643 45,000  Level Minneapolis Center
Mon 04:19:15 PM 41.5858 -94.0219 83° East 554 638 45,000  Level Minneapolis Center
Mon 04:20:17 PM 41.6092 -93.8169 81° East 558 642 45,000  Level Minneapolis Center
Mon 04:21:19 PM 41.6303 -93.6139 82° East 557 641 45,000  Level Minneapolis Center
Mon 04:22:21 PM 41.6561 -93.3661 82° East 563 648 45,000  Level Minneapolis Center
Mon 04:23:24 PM 41.6767 -93.1644 82° East 555 639 45,000  Level Minneapolis Center
Mon 04:24:26 PM 41.6956 -92.9614 83° East 553 636 45,000  Level Minneapolis Center
Mon 04:25:28 PM 41.7139 -92.7744 82° East 554 638 45,000  Level Minneapolis Center
Mon 04:26:30 PM 41.7369 -92.5328 83° East 553 636 45,000  Level Minneapolis Center
Mon 04:27:32 PM 41.7556 -92.3306 83° East 553 636 45,000  Level Minneapolis Center
Mon 04:28:34 PM 41.7744 -92.1278 83° East 556 640 45,000  Level Minneapolis Center
Mon 04:29:36 PM 41.7914 -91.9239 84° East 557 641 45,000  Level Minneapolis Center
Mon 04:30:38 PM 41.8075 -91.7375 83° East 555 639 45,000  Level Minneapolis Center
Mon 04:32:00 PM 41.8140 -91.5031 88° East  Level FlightAware Approximate
Mon 04:32:52 PM 41.8492 -91.2394 88° East 548 631 45,000  Level Chicago Center
Mon 04:33:54 PM 41.8650 -91.0378 84° East 551 634 45,000  Level Chicago Center
Mon 04:34:56 PM 41.8800 -90.8392 84° East 547 629 45,000  Level Chicago Center
Mon 04:35:58 PM 41.8992 -90.5983 84° East 548 631 45,000  Level Chicago Center
Mon 04:37:00 PM 41.9147 -90.4000 84° East 543 625 45,000  Level Chicago Center
Mon 04:38:02 PM 41.9278 -90.2017 85° East 541 623 45,000  Level Chicago Center
Mon 04:39:04 PM 41.9422 -90.0014 84° East 544 626 45,000  Level Chicago Center
Mon 04:40:06 PM 41.9567 -89.7717 85° East 541 623 45,000  Level Chicago Center
Mon 04:41:08 PM 41.9717 -89.5733 84° East 537 618 45,000  Level Chicago Center
Mon 04:42:10 PM 41.9856 -89.3614 85° East 541 623 45,000  Level Chicago Center
Mon 04:43:12 PM 41.9967 -89.1708 85° East 537 618 45,000  Level Chicago Center
Mon 04:44:14 PM 42.0119 -88.9369 85° East 539 620 45,000  Level Chicago Center
Mon 04:45:17 PM 42.0236 -88.7364 85° East 539 620 45,000  Level Chicago Center
Mon 04:46:19 PM 42.0358 -88.5369 85° East 538 619 45,000  Level Chicago Center
Mon 04:47:21 PM 42.0467 -88.3353 86° East 543 625 45,000  Level Chicago Center
Mon 04:48:23 PM 42.0586 -88.1314 85° East 546 628 45,000  Level Chicago Center
Mon 04:49:25 PM 42.0706 -87.8972 86° East 541 623 45,000  Level Chicago Center
Mon 04:50:27 PM 42.0806 -87.6964 86° East 540 621 45,000  Level Chicago Center
Mon 04:51:29 PM 42.0911 -87.4961 86° East 539 620 45,000  Level Chicago Center
Mon 04:52:32 PM 42.1000 -87.2964 87° East 536 617 45,000  Level Chicago Center
Mon 04:53:33 PM 42.1094 -87.0969 86° East 536 617 45,000  Level Chicago Center
Mon 04:54:35 PM 42.1183 -86.8764 87° East 531 611 45,000  Level Chicago Center
Mon 04:55:37 PM 42.1275 -86.6778 86° East 531 611 45,000  Level Chicago Center
Mon 04:56:40 PM 42.1350 -86.4803 87° East 529 609 45,000  Level Chicago Center
Mon 04:57:42 PM 42.1422 -86.2811 87° East 531 611 45,000  Level Chicago Center
Mon 04:58:44 PM 42.1500 -86.0806 87° East 535 616 45,000  Level Chicago Center
Mon 04:59:46 PM 42.1578 -85.8578 87° East 533 613 45,000  Level Chicago Center
Mon 05:00:48 PM 42.1636 -85.6581 88° East 537 618 45,000  Level Chicago Center
Mon 05:01:50 PM 42.1706 -85.4583 87° East 538 619 45,000  Level Chicago Center
Mon 05:02:52 PM 42.1783 -85.2194 87° East 536 617 45,000  Level Chicago Center
Mon 05:03:54 PM 42.1828 -85.0200 88° East 535 616 45,000  Level Chicago Center
Mon 05:04:56 PM 42.1894 -84.8194 87° East 536 617 45,000  Level Chicago Center
Mon 05:05:58 PM 42.1939 -84.6225 88° East 532 612 45,000  Level Chicago Center
Mon 05:07:01 PM 42.1981 -84.4225 88° East 534 615 45,000  Level Chicago Center
Mon 05:07:57 PM 42.1989 -84.2047 90° East 536 617 45,000  Level Cleveland Center
Mon 05:08:57 PM 42.2028 -84.0058 88° East 536 617 45,000  Level Cleveland Center
Mon 05:09:57 PM 42.2086 -83.8100 88° East 531 611 45,000  Level Cleveland Center
Mon 05:10:57 PM 42.2086 -83.6528 90° East 531 611 45,000  Level Cleveland Center
Mon 05:11:57 PM 42.2128 -83.4119 89° East 536 617 45,000  Level Cleveland Center
Mon 05:12:57 PM 42.2153 -83.2131 89° East 531 611 45,000  Level Cleveland Center
Mon 05:13:57 PM 42.2153 -83.0250 90° East 536 617 45,000  Level Cleveland Center
Mon 05:14:57 PM 42.2172 -82.8261 89° East 530 610 45,000  Level Cleveland Center
Mon 05:15:57 PM 42.2189 -82.6300 89° East 530 610 45,000  Level Cleveland Center
Mon 05:16:57 PM 42.2203 -82.4281 89° East 530 610 45,000  Level Cleveland Center
Mon 05:17:57 PM 42.2211 -82.2317 90° East 530 610 45,000  Level Cleveland Center
Mon 05:18:57 PM 42.2239 -82.0300 89° East 530 610 45,000  Level Cleveland Center
Mon 05:19:57 PM 42.2219 -81.8308 91° East 536 617 45,000  Level Cleveland Center
Mon 05:20:57 PM 42.2219 -81.6317 90° East 531 611 45,000  Level Cleveland Center
Mon 05:21:57 PM 42.2194 -81.4297 91° East 531 611 45,000  Level Cleveland Center
Mon 05:22:57 PM 42.2061 -81.2250 95° East 540 621 45,000  Level Cleveland Center
Mon 05:23:57 PM 42.1883 -81.0036 96° East 540 621 45,000  Level Cleveland Center
Mon 05:25:00 PM 42.1591 -80.8018 99° East  Level FlightAware Approximate
Mon 05:25:57 PM 42.1372 -80.6000 99° East 546 628 45,000  Level Cleveland Center
Mon 05:26:57 PM 42.1161 -80.4011 98° East 541 623 45,000  Level Cleveland Center
Mon 05:27:57 PM 42.0906 -80.2000 100° East 548 631 45,000  Level Cleveland Center
Mon 05:28:57 PM 42.0669 -79.9986 99° East 543 625 45,000  Level Cleveland Center
Mon 05:29:57 PM 42.0406 -79.8003 100° East 543 625 45,000 -50 Level Cleveland Center
Mon 05:30:57 PM 42.0161 -79.5967 99° East 543 625 44,900 -350 Descending Cleveland Center
Mon 05:31:57 PM 41.9914 -79.3931 99° East 548 631 44,300 -650 Descending Cleveland Center
Mon 05:32:57 PM 41.9642 -79.1869 100° East 553 636 43,600 -700 Descending Cleveland Center
Mon 05:33:57 PM 41.9364 -78.9781 100° East 558 642 42,900 -700 Descending Cleveland Center
Mon 05:34:57 PM 41.9083 -78.7725 100° East 563 648 42,200 -700 Descending Cleveland Center
Mon 05:35:57 PM 41.8797 -78.5639 100° East 563 648 41,500 -750 Descending Cleveland Center
Mon 05:36:57 PM 41.8508 -78.3558 100° East 563 648 40,700 -800 Descending Cleveland Center
Mon 05:37:57 PM 41.8217 -78.1506 101° East 563 648 39,900 -839 Descending Cleveland Center
Mon 05:38:30 PM 41.8072 -78.0394 100° East 556 640 39,400 -830 Descending New York Center
Mon 05:39:31 PM 41.7778 -77.8361 101° East 535 616 38,600 -787 Descending New York Center
Mon 05:40:32 PM 41.7481 -77.6353 101° East 540 621 37,800 -787 Descending New York Center
Mon 05:41:33 PM 41.7200 -77.4297 100° East 552 635 37,000 -864 Descending New York Center
Mon 05:42:30 PM 41.6892 -77.2319 102° East 552 635 36,100 -1,169 Descending New York Center
Mon 05:43:31 PM 41.6497 -77.0394 105° East 547 629 34,700 -2,132 Descending New York Center
Mon 05:44:31 PM 41.5969 -76.8486 110° East 542 624 31,800 -2,826 Descending New York Center
Mon 05:45:32 PM 41.5475 -76.6750 111° Southeast 549 632 29,000 -3,050 Descending New York Center
Mon 05:46:31 PM 41.4947 -76.4792 110° East 559 643 25,700 -2,622 Descending New York Center
Mon 05:47:31 PM 41.4492 -76.2925 108° East 548 631 23,800 -1,835 Descending New York Center
Mon 05:48:32 PM 41.3931 -76.1111 112° Southeast 540 621 22,000 -1,721 Descending New York Center
Mon 05:49:33 PM 41.3411 -75.9189 110° East 518 596 20,300 -2,034 Descending New York Center
Mon 05:50:30 PM 41.2900 -75.7494 112° Southeast 499 574 18,000 -2,233 Descending New York Center
Mon 05:52:33 PM 41.1903 -75.4389 113° Southeast 455 524 13,600 -2,200 Descending New York Center
Mon 05:53:30 PM 41.1453 -75.3089 115° Southeast 432 497 11,400 -1,831 Descending New York Center
Mon 05:54:31 PM 41.1006 -75.1683 113° Southeast 417 480 10,000 -1,377 Descending New York Center
Mon 05:55:32 PM 41.0556 -75.0333 114° Southeast 390 449 8,600 -1,574 Descending New York Center
Mon 05:56:33 PM 41.0214 -74.9403 116° Southeast 329 379 6,800 -1,322 Descending New York Center
Mon 05:57:30 PM 41.0275 -74.8197 86° East 291 335 6,000 -966 Descending New York Center
Mon 05:58:31 PM 41.0453 -74.7300 75° East 285 328 4,900 -1,210 Descending New York Center
Mon 05:59:29 PM 41.0667 -74.6167 76° East 279 321 3,600 -966 Descending New York TRACON
Mon 06:00:29 PM 41.0500 -74.5167 102° East 272 313 3,000 -286 Descending New York TRACON
Mon 06:01:35 PM 41.0167 -74.4167 114° Southeast 277 319 3,000 -238 Level New York TRACON
Mon 06:02:35 PM 41.0000 -74.3167 102° East 289 333 2,500 -474 Descending New York TRACON
Mon 06:03:29 PM 40.9667 -74.2333 118° Southeast 270 311 2,100 -263 Descending New York TRACON
Mon 06:04:29 PM 40.9500 -74.1500 105° East 246 283 2,000 -286 Descending New York TRACON
Mon 06:05:35 PM 40.9333 -74.0667 105° East 206 237 1,500 -450 Descending New York TRACON
Mon 06:06:29 PM 40.9000 -74.0167 131° Southeast 186 214 1,100 -526 Descending New York TRACON
Mon 06:07:29 PM 40.8667 -74.0333 201° Southwest 134 154 500 5,541 Descending New York TRACON
Mon 06:09:32 PM 40.8217 -74.0781 217° Southwest 110 127 18,000 8,537 Climbing New York Center

Login

Don't have an account? Register now (free) for customized features, flight alerts, and more!